Welcome to our Virtual Airline
Sign-in:

Flight MFC-KHKDIV

  • Submitted By: Karl-Heinz Klotz
  • Departure Airport: (CYJ4)
  • Arrival Airport: Bella Bella (Campbell I) (CAF2)
  • Aircraft: BARON B58 (N58BMM)
  • Flight Time: 00.43.47
  • Date Submitted: 21/03/09
  • Route: DIRECT
  • Status: Accepted
Flight Details
Gross Revenue:
(3 load / $ 0.00 per unit
$ 0.00
Fuel Cost:
(80.7394 fuel used @ 0 / unit)
$ 0.00

Additional Log Information:

View Log

[18:22] ----- Flight Opened -----
[18:22] Cigar Box - 1.1.4.0
[18:22] FS: Prepar3D V4
[18:22] FSUIPC: v6,005
[18:22] Flight Number: KHKDIV
[18:22] FS Aircraft: RealAir Beech Duke V2 N1873K Winglets Ventral
[18:22] FS Model: Duke
[18:22] FS Type: Beech
[18:22] Departure: CYJ4
[18:22] Arrival: C
[18:22] Flight Level: 3000
[18:22] Flight Type: H
[18:22] Passengers: 3
[18:22] FOB: 487 lbs
[18:22] Gate: n/a
[18:22] NOTE: Parking Brake Ignored
[18:22] Crash Detection: Disabled
[18:22] Engines: 2 Piston
[18:22] NOTE: Boarding has started
[18:22] Parking Brake: Engaged
[18:22] Main Door Closed
[18:22] COM1: 121.00
[18:22] COM2: 127.80
[18:22] Transponder: 3442
[18:22] NAV1: 112.00
[18:22] NAV2: 112.00
[18:22] ADF1: 200.0
[18:22] ADF2: 240.0
[18:22] Navigation Mode: NAV
[18:23] Engine 1: Started
[18:23] Engine 2: Started
[18:23] Light Data: Instrument lights ON
[18:23] Light Data: Navigation ON
[18:23] Light Data: Beacon ON
[18:23] Light Data: Taxi lights ON
[18:23] Light Data: Strobe lights ON
[18:24] Parking Brake: Released
[18:24] Flaps: Position 1
[18:24] NOTE: Taxi started
[18:25] Parking Brake: Engaged
[18:25] Light Data: Taxi lights OFF
[18:25] Light Data: Landing lights ON
[18:27] Parking Brake: Released
[18:27] NOTE: ----- TAKE OFF -----
[18:27] Speed Data: 110 knots GS | 113 knots TAS | 111 knots IAS | 11 fpm VS
[18:27] FOB: 483 lbs
[18:27] Heading: 124° | Pitch: 4° | Bank: 0°
[18:27] Aircraft Weight: 5958,60 lbs
[18:27] Nearest Airport: CAJ4 | 0,11 miles
[18:27] Runway: 13 - CAJ4
[18:27] Ground Surface: Asphalt
[18:27] Ground Condition: Snow
[18:27] NOTE: Weather Report
[18:27] Wind 97° | 1 knots
[18:27] OAT: -9° C | TAT: -7° C | Precipitation: None | Dew Point: -14° C
[18:27] Visibility: 14 miles
[18:27] METAR:
[18:27] NOTE: Climb started
[18:27] NOTE: TOC reached
[18:27] NOTE: Cruise started
[18:27] Speed Data: 114 knots GS | 115 knots TAS | 113 knots IAS | 113 fpm VS
[18:27] FOB: 483 lbs
[18:27] Heading: 122° | Pitch: 5° | Bank: 0°
[18:27] Aircraft Weight: 5958,30 lbs
[18:27] Landing Gear: Retracted
[18:27] Speed Data: 126 knots GS | 127 knots TAS | 125 knots IAS | 646 fpm VS
[18:27] Altitude Data: 66 ft AGL | 3684 ft AMSL
[18:27] Flaps: Position 0
[18:27] Speed Data: 126 knots GS | 128 knots TAS | 126 knots IAS | 671 fpm VS
[18:28] Autopilot: Engaged
[18:28] Altitude Data: 131 ft AGL | 3779 ft AMSL
[18:28] View Mode: Virtual Cockpit
[18:33] Recovery: Flight Saved
[18:38] Recovery: Flight Saved
[18:43] Recovery: Flight Saved
[18:48] Recovery: Flight Saved
[18:53] Recovery: Flight Saved
[18:58] Recovery: Flight Saved
[18:59] Flaps: Position 1
[18:59] Speed Data: 163 knots GS | 158 knots TAS | 153 knots IAS | -40 fpm VS
[19:00] NOTE: TOD reached
[19:00] NOTE: Descent started
[19:00] Speed Data: 143 knots GS | 139 knots TAS | 135 knots IAS | -643 fpm VS
[19:00] FOB: 320 lbs
[19:00] Heading: 252° | Pitch: 0° | Bank: -2°
[19:00] Aircraft Weight: 5795,62 lbs
[19:00] NOTE: On approach
[19:01] Landing Gear: Extended
[19:01] Speed Data: 143 knots GS | 141 knots TAS | 138 knots IAS | -621 fpm VS
[19:01] Altitude Data: 2086 ft AGL | 2217 ft AMSL
[19:03] Autopilot: Disengaged
[19:03] Altitude Data: 722 ft AGL | 882 ft AMSL
[19:04] ADF1: 325.0
[19:05] NOTE: ----- LANDED -----
[19:05] Landing Rate: -156,87 fpm
[19:05] Speed Data: 85 knots GS | 86 knots TAS | 87 knots IAS | -155 fpm VS
[19:05] FOB: 310 lbs
[19:05] Heading: 312° | Pitch: 6° | Bank: 0°
[19:05] Aircraft Weight: 5785,64 lbs
[19:05] Nearest Airport: CAF2 | 0,24 miles
[19:05] Runway: 31 - CAF2
[19:05] Ground Surface: Asphalt
[19:05] Ground Condition: Normal
[19:05] NOTE: Weather Report
[19:05] Wind 27° | 5 knots
[19:05] OAT: 10° C | TAT: 11° C | Precipitation: None | Dew Point: -11° C
[19:05] Visibility: 14 miles
[19:05] METAR: CWRY 091700Z AUTO 35005KT M02/M04 RMK AO1 SLP183 T10221037 50005 CYQA 091700Z AUTO 28006KT 240V330 9SM CLR 06/M03 A3037 RMK SLP297 CWSD 091700Z AUTO 17008KT 01/M06 RMK AO1 SOG 16 8013 SLP210 T00141060 CZST 091700Z 06002KT 15SM SKC M05/M06 A3013 RMK FROIN SLP205 CXKA 091700Z AUTO 19007KT 06/M03 RMK AO1 SOG 77 8002 SLP243 T00551033 CWPD 091700Z AUTO 03006G15KT M06/M10 RMK AO1 3022 SLP214 T10621097 50010 CYUY 091700Z 24006KT 230V350 15SM FEW240 05/M06 A3030 RMK CI1 CI TR SLP276 CYUX 091700Z 31016KT 5SM -SN BKN029 M18/M21 A2935 RMK SC6 SLP940 CZMU 091700Z AUTO 17007KT M04/M04 RMK AO1 T10381038 CWZZ 091700Z AUTO 31018KT ////SM ////// M08/M09 A2956 CXPL 091700Z AUTO 31001KT M04/M04 RMK AO1 T10391039 CWXR 091700Z AUTO 30012KT ////SM NCD M28/M30 A3017 CYPR 091700Z AUTO VRB02KT 9SM CLR 01/M01 A3006 RMK SLP182 CWLC 091700Z AUTO 04/M01 RMK AO1 T00431010 CZKD 091700Z AUTO 28002KT M11/M16 RMK AO1 SOG 82 8008 SLP229 T11061157 CYLA 091700Z 26011G18KT 12SM DRSN BKN031 M10/M14 A2983 RMK SC7 SLP107 CYQF 091700Z AUTO 18008KT 9SM CLR M05/M05 A2990 RMK SLP180 CXSC 091700Z AUTO 29007KT M02/M02 RMK AO1 T10241015 CZSM 091700Z AUTO 32001KT M16/M21 RMK AO1 SOG 54 6008 SLP200 T11641211 50002 CWYY 091700Z AUTO 20002KT 01/M04 RMK AO1 SLP201 T00061038 51008 CWXL 091700Z AUTO 33004KT M04/M05 RMK AO1 SLP193 T10371046 51008 CYND 091700Z 32009KT 260V340 15SM BKN035 05/M03 A3032 RMK SC5 SLP273 CYHA 091700Z 30011KT 15SM FEW044 BKN093 M10/M14 A2970 RMK SC1AC6 SLP061 CWLI 091700Z AUTO 13013KT ////SM //// NCD ///// A//// CXMO 091700Z AUTO 22006KT M04/M04 RMK AO1 T10381038 CYOJ 091700Z 14008KT 15SM -SN SCT019 BKN034 BKN250 M11/M13 A2995 RMK SC3SC3CI1 CI TR SLP174 CWTT 091700Z AUTO 29012KT M00/M06 RMK AO1 T10041062 CXFM 091700Z AUTO 32006KT M03/M03 RMK AO1 T10301033 CZOL 091700Z AUTO 19007KT M03/M03 RMK AO1 T10301030 CXRH 091700Z AUTO 26007KT 02/M06 RMK AO1 T00161055 CWGM 091700Z AUTO 19011KT 01/M09 RMK AO1 PK WND 21018/1609 T00121091 CYGP 091700Z 09009KT 15SM FEW300 M01/M08 A3008 RMK CI2 SLP188 CYWG 091700Z 03009KT 15SM BKN033 BKN090 04/02 A2967 RMK SC5AC2 SLP057 CYYC 091700Z 22006KT 15SM FEW004 M03/M05 A2990 RMK SF2 SLP179 CYXX 091700Z 03008KT 30SM SCT080 BKN220 07/00 A2999 RMK AC3CI4 SLP157 CXHM 091700Z AUTO 27004KT 09/M00 RMK AO1 0005 SLP301 T00921003 50005 CWCT 091700Z AUTO 18007KT M06/M07 RMK AO1 SLP189 T10571074 58008 CWKM 091700Z AUTO 11008KT ////SM BKN140 M17/M19 A2975 CWCJ 091700Z AUTO 20006KT 05/M02 RMK AO1 SOG 52 5003 PK WND 22017/1613 SLP245 T00501017 CYZV 091700Z 15006KT 30SM FEW050 FEW160 OVC260 M03/M07 A3009 RMK CU1AC1CI8 CU TR AC TR SLP195 CWSK 091700Z AUTO 34003KT 02/M00 RMK AO1 3005 SLP178 T00241004 50001 CYBQ 091700Z AUTO 25008KT 230V290 9SM CLR M15/M20 A3005 RMK SLP209 CMGB 091700Z AUTO 27007KT 01/M05 RMK AO1 SOG 31 1025 SLP258 T00061048 CYMT 091726Z AUTO 30009KT 260V320 9SM OVC010 M03/M06 A3021 RMK SLP257 CYTZ 091700Z AUTO 28007KT 260V320 9SM CLR 09/M02 A3040 RMK SLP300 CWLB 091700Z AUTO 17006KT M04/M10 RMK AO1 SOG 13 7019 SLP163 T10421096 CXTN 091700Z AUTO 23006KT M31/M34 RMK AO1 SOG 103 0001 SLP229 T13111344 CYXE 091700Z 06009KT 15SM SCT070 BKN140 BKN300 M06/M10 A3001 RMK AC3AC2CI1 SLP197 CPRY 091700Z AUTO 22003KT M02/M02 RMK AO1 T10191022 CWHT 091700Z AUTO 00000KT M26/M30 RMK AO1 SOG 69 8004 SLP278 T12591299 CYJT 091700Z 26013KT 15SM BKN020 M01/M05 A3012 RMK SC7 SLP202 CXZV 091700Z AUTO 18003KT M02/M08 RMK AO1 SOG 86 8004 SLP194 T10221075 CYGT 091700Z 31008KT 15SM -SG FEW036 BKN064 BKN098 M20/M23 A2931 RMK SC2SC3AS2 SLP935 CYBR 091728Z 01015KT 1SM -SN OVC011 00/M00 A2976 RMK SN2SC6 SLP099 CYCQ 091700Z 24005KT 190V260 35SM FEW055 M05/M08 A2987 RMK SC1 SC TR SLP152 CYVT 091700Z AUTO 18009KT 9SM BKN100 BKN130 M08/M17 A2994 RMK SLP178 CYYG 091700Z 17004KT 15SM FEW024 FEW050 SCT250 00/M06 A3015 RMK SC1SC1CI4 SC TR SC TR SLP215 CWJW 091700Z AUTO 19004KT M07/M15 RMK AO1 SOG 15 8009 SLP185 T10711152 50002 CWQO 091700Z AUTO 01004KT M03/M06 RMK AO1 T10291060 CYPA 091700Z 10004KT 15SM SCT170 BKN270 M07/M14 A3007 RMK AC4CI3 SLP215 CYNE 091700Z AUTO 04005KT 350V080 9SM CLR M07/M11 A3008 RMK SLP205 CXTV 091700Z AUTO 12005KT M23/M25 RMK AO1 SOG 26 8011 SLP157 T12251252 CYQQ 091700Z 32004KT 20SM OVC035 04/03 A3000 RMK SC8 SLP161 CZEV 091700Z AUTO 13009KT M18/M22 RMK AO1 SOG 32 8006 SLP170 T11781215 CWLS 091700Z AUTO 26002KT 04/M02 RMK AO1 SOG 17 1010 SLP307 T00381015 CYHY 091736Z 19002KT 12SM -SN SCT035 BKN043 BKN068 M17/M19 A3004 RMK SC3SC2AC2 SLP194 CYUB 091700Z 15016KT 15SM DRSN FEW100 M26/M29 A3002 RMK AC2 SLP169 CWRT 091700Z AUTO 26001KT M02/M09 RMK AO1 T10241090 CYPH 091751Z AUTO 26020G26KT 3/4SM HZ OVC019 M14/M17 A2998 RMK SLP158 CWGR 091700Z AUTO 19011G16KT M01/M05 RMK AO1 PK WND 19017/1620 SLP213 T10051054 58008 CYEG 091735Z 19009KT 10SM SCT005 BKN250 M02/M03 A2989 RMK SC4CI2 VIS E QUAD 3 SM CONTRAILS SLP160 CYYE 091700Z 00000KT 30SM SKC M14/M15 A2991 RMK SLP165 CWQS 091700Z AUTO 08005KT 05/02 RMK AO1 SLP184 T00480016 53011 CYGV 091751Z AUTO 26010KT 9SM CLR M02/M05 A3006 RMK SLP184 CWAQ 091700Z AUTO 33012KT M00/M01 RMK AO1 PK WND 32017/1607 SLP125 T10041010 58007 CYDC 091700Z VRB02KT 25SM FEW100 SCT250 M03/M09 A3001 RMK AC1CI3 SLP193 CYVC 091700Z 15005KT 15SM SCT220 M09/M18 A3008 RMK CI3 SLP220 CXHA 091700Z AUTO 13007KT 09/01 RMK AO1 SLP296 T00860014 50003 CWFJ 091700Z AUTO 14003KT 02/M06 RMK AO1 T00211056 CXVN 091700Z AUTO 34006KT 07/M00 RMK AO1 SLP300 T00731001 51009 CXTD 091700Z AUTO 21006KT 03/M08 RMK AO1 SOG 04 8015 SLP231 T00301075 CYSM 091700Z 00000KT 15SM FEW220 M18/M21 A3006 RMK CI1 SLP204 CYAT 091744Z AUTO 05009KT 9SM -SN OVC010 M05/M07 A3016 RMK SLP214 CXHR 091700Z AUTO 21007KT M04/M04 RMK AO1 T10351035 CYRA 091700Z 00000KT 15SM SKC M33/M37 A3008 RMK SLP225 CWEQ 091700Z AUTO 03011KT M07/M08 RMK AO1 2PAST HR SOG 01 5001 PK WND 03019/1603 SLP183 P0001 T10701083 50006 CWEW 091700Z AUTO 23003KT 03/M05 RMK AO1 SOG 40 1025 SLP265 T00301049 CWIS 081600Z AUTO 20004KT M07/M12 RMK AO1 SOG 79 8001 SLP253 T10731117 CYXJ 091700Z CCA VRB02KT 60SM OVC015 M07/M10 A2986 RMK SC8 SLP156 CXRB 091700Z AUTO 04024KT M28/M32 RMK AO1 SOG 10 5005 PK WND 04026/1656 SLP065 T12781321 50003 CYEN 091752Z AUTO 32007KT 6SM -RA BR BKN005 OVC009 01/00 A2980 RMK SLP117 CYWK 091700Z 25009KT 15SM SCT031 BKN040 M06/M12 A2992 RMK SC3SC4 SLP188 CYNA 091701Z AUTO 27010KT 9SM OVC007 M04/M05 A3007 RMK SLP186 CYYU 091700Z 19013KT 15SM BKN260 08/M04 A3023 RMK CI5 SLP252 CWAV 091700Z AUTO 34002KT M04/M10 RMK AO1 SOG 10 8009 SLP167 T10421095 50007 CXNP 091700Z AUTO 19010KT 03/M05 RMK AO1 SOG 22 8012 SLP210 T00311047 50003 CYBC 091744Z AUTO 23007KT 9SM -SN BKN029 OVC038 M04/M07 A3013 RMK SLP207 CYBX 091700Z 26009KT 15SM SKC M05/M10 A2998 RMK SLP156 CZZJ 091700Z AUTO 24004KT M02/M08 RMK AO1 SOG 10 7008 SLP152 T10211081 CYPG 091700Z 05006KT 15SM -SHRA OVC037 04/00 A2970 RMK SC8 PCPN VRY LGT SLP068 CYXH 091700Z 27008KT 9SM OVC010 M01/M04 A3000 RMK SC8 SLP190 CYEV 091700Z 12008KT 15SM FEW120 FEW250 M19/M22 A3000 RMK AC1CI1 SLP169 CYWL 091700Z 12006KT 15SM FEW230 M05/M10 A2993 RMK CI2 SLP180 CZMT 091700Z 00000KT 15SM BKN015 04/03 A3010 RMK SC7 SLP194 CXHP 091700Z AUTO 26005KT M06/M07 RMK AO1 T10641069 CYFS 091700Z 19002KT 15SM BKN033 M20/M23 A3000 RMK SC6 SLP183 CYNC 091700Z 17008G18KT 150V220 15SM SCT120 01/M04 A3012 RMK AC3 SLP203 CXET 091700Z AUTO 07001KT 07/M03 RMK AO1 SOG 14 1012 SLP301 T00681031 CWJV 091700Z AUTO 11005KT M00/M06 RMK AO1 SLP192 T10011064 50003 CWUS 091700Z AUTO 27002KT 01/M07 RMK AO1 SLP195 T00051067 50002 CWKO 091700Z AUTO 36011G16KT M02/M03 RMK AO1 1PAST HR 8006 SLP144 P0000 T10171026 50006 CWNM 091700Z AUTO 05002KT 02/M06 RMK AO1 3PAST HR 0002 SLP208 P0001 T00161056 50014 CYZT 091700Z 10010KT 20SM FEW038 SCT210 06/02 A2996 RMK SC1CI3 SLP148 CXWN 091700Z AUTO 06002KT 04/01 RMK AO1 8PAST HR 8030 SLP054 P0007 T00400013 50042 CYSJ 091738Z 28004KT 1SM R23/P6000FT/U -SN OVC010 M01/M02 A3012 RMK SC8 SLP208 CYUS 091700Z AUTO 12006KT ////SM //// NCD M26/M29 A2953 CWHP 091700Z AUTO 23013KT RMK AO1 58005 CYYL 091700Z AUTO 20005KT 9SM BKN190 M10/M19 A3009 RMK SLP226 CWME 091700Z AUTO 04024KT 03/M01 RMK AO1 PK WND 03029/1626 SLP170 T00251007 53010 CWEL 091700Z AUTO 16009KT 07/04 RMK AO1 SLP152 T00690035 53007 CWIG 091700Z AUTO 22012KT RMK AO1 PK WND 22017/1655 CWTY 091700Z AUTO 20011KT M01/M05 RMK AO1 SLP246 T10141048 51022 CWBT 091700Z AUTO 22005KT M02/M07 RMK AO1 SLP191 T10201067 58007 CYDQ 091700Z AUTO VRB02KT 9SM CLR M07/M09 A2987 RMK SLP158 CYZW 091700Z 24003KT 40SM SKC M26/M29 A3008 RMK SLP265 CYQY 091700Z 25006KT 210V270 15SM FEW025 02/M06 A3018 RMK CF1 CF TR SLP223 CWWF 091700Z AUTO 02009KT 01/01 RMK AO1 1PAST HR 1008 SLP125 P0000 T00070005 50002 CYKJ 091700Z AUTO 21013KT 9SM FEW044 BKN050 OVC066 M10/M18 A2995 RMK SLP193 CYTS 091700Z 17008KT 15SM FEW240 06/M03 A3028 RMK CI1 SLP271 CWPC 091700Z AUTO 23013KT 02/M00 RMK AO1 SLP307 T00241004 51007 CWOC 091700Z AUTO 25003KT 00/M12 RMK AO1 SLP193 T00001120 58009 CWDT 091600Z AUTO 10001KT RMK AO1 2018 50001 CXBI 091700Z AUTO 36006KT 05/M03 RMK AO1 SOG 28 1013 SLP307 T00501030 CXPA 091700Z AUTO 30003KT M06/M06 RMK AO1 T10581058 CWBY 091700Z AUTO 23009KT M02/M06 RMK AO1 SOG 61 8003 SLP193 T10161061 CYVR 091700Z 07006KT 20SM BKN075 BKN240 07/02 A2998 RMK AC5CI2 SLP153 CYUT 091700Z VRB02KT 15SM -SN BKN040 M25/M29 A2953 RMK SC7 STR SLP006 CWCO 091700Z AUTO 36003KT 06/M00 RMK AO1 SLP304 T00631003 51010 CWDV 091700Z AUTO 16008KT 08/M07 RMK AO1 SOG 33 8035 PK WND 16020/1609 SLP148 T00821069 CZEM 091700Z 19012G18KT 15SM FEW070 01/M04 A3016 RMK AC1 AC TR SLP216 CWJT 091700Z AUTO 29002KT 03/M02 RMK AO1 SLP271 T00271018 51026 CXRL 091700Z AUTO 21006KT M05/M06 RMK AO1 T10491060 CYIV 091700Z 07009G16KT 15SM BKN020 M07/M11 A3007 RMK SC7 PRESFR SLP201 CWRN 091700Z AUTO 23009KT 01/M06 RMK AO1 PK WND 18017/1636 SLP237 T00081055 58009 CYQH 091700Z 28003KT 30SM FEW150 M28/M31 A2995 RMK AC1 SLP220 CYFB 091746Z 00000KT 1SM R34/5000VP6000FT/D -SN FEW014 OVC030 M10/M12 A2962 RMK SC1SC7 SLP034 CYAZ 091700Z 02003KT 15SM BKN074 BKN100 06/04 A2991 RMK AC6AC1 SLP130 CYPX 091746Z AUTO 24022KT 1/4SM +SN BLSN BKN017 BKN022 OVC030 M14/M15 A2985 RMK SLP114 CWDO 091700Z AUTO 28011KT M04/M07 RMK AO1 PK WND 27017/1610 SLP144 T10421071 56003 CWJC 091700Z AUTO 28011KT M26/M30 RMK AO1 SOG 08 3004 SLP191 T12641302 CWEH 091700Z AUTO 33008KT M02/M04 RMK AO1 SOG 21 3006 SLP160 T10151042 CYZU 091750Z 22003KT 10SM SCT006 BKN070 M03/M04 A2986 RMK CU4AC3 SLP151 CWIW 091700Z AUTO 05011KT M04/M06 RMK AO1 2PAST HR SOG 01 0004 SLP184 P0001 T10441060 50004 CWUX 091700Z AUTO 28010KT M04/M08 RMK AO1 SLP225 T10351075 52016 CXLL 091700Z AUTO 00000KT M26/M30 RMK AO1 SOG 71 1005 SLP183 T12641298 CYQK 091700Z 12009KT 20SM FEW058 SCT080 BKN240 06/M01 A2972 RMK SC2AC1CI4 SLP079 CYHE 091700Z AUTO 11011KT 9SM CLR 04/M01 A3004 RMK SLP176 CYPD 091700Z AUTO VRB04KT 9SM CLR 02/M06 A3017 RMK SLP226 CWPZ 091700Z AUTO 30003KT M11/M15 RMK AO1 SOG 55 0003 SLP194 T11121147 CWDM 091700Z AUTO 22010KT M02/M06 RMK AO1 SOG 35 8009 SLP178 T10211056 CWMM 091700Z AUTO 23001KT 06/01 RMK AO1 SLP162 T00590012 51003 CYKY 091700Z 22003KT 130V260 15SM OVC017 M05/M07 A2997 RMK SC8 SLP189 CYXC 091700Z 00000KT 25SM BKN240 M03/M13 A3004 RMK CI6 SLP209 CZCR 091700Z AUTO 05003KT M04/M10 RMK AO1 SOG 46 6009 SLP196 T10381102 CWJX 091700Z AUTO 00000KT M03/M06 RMK AO1 SLP189 T10321055 50006 CYLW 091700Z AUTO 00000KT 9SM CLR M00/M05 A3005 RMK SLP197 CZSJ 091748Z AUTO 07009G19KT 2 1/4SM -SN OVC012 M04/M05 A2997 RMK VIS VRB 1 3/4-2 1/2 SLP172 CXCD 091700Z AUTO 16004KT M07/M09 RMK AO1 T10711089 CPIR 091700Z AUTO 21005KT M03/M03 RMK AO1 T10281031 CWBZ 091700Z AUTO 26007KT 04/M03 RMK AO1 SLP269 T00401029 51022 CWGB 091700Z AUTO 24004KT 05/ RMK AO1 SLP150 T0054 53004 CYVO 091700Z VRB03KT 15SM SKC 02/M06 A3029 RMK SLP281 CWPX 091700Z AUTO 34028KT ////SM //// SCT003 M29/M33 A2978 CWJB 091700Z AUTO 22006KT M03/ RMK AO1 SOG 56 T1027 CXCP 091700Z AUTO 16006KT M04/M04 RMK AO1 T10361036 CXFR 091700Z AUTO 30001KT M06/M06 RMK AO1 5PAST HR M P0002 T10611062 50005 CWGL 091700Z AUTO 33007KT 06/M03 RMK AO1 SLP282 T00561032 51010 CWNQ 091700Z AUTO 27004KT M00/M06 RMK AO1 SLP252 T10031060 51022 CERM 091700Z AUTO 28005KT M03/M07 RMK AO1 SOG 65 6003 SLP201 T10311069 50014 CWPF 091745Z AUTO 07004KT 08/02 RMK AO1 SLP146 T00800015 53012 CWNZ 091700Z AUTO 19006KT 09/M05 RMK AO1 SOG 58 8004 SLP240 T00871051 CWEE 091600Z AUTO M04/M06 RMK AO1 SLP226 T10361055 52028 CZTB 091700Z AUTO 09010KT 04/M02 RMK AO1 SOG 12 8028 SLP190 T00371021 CYSB 091700Z 22004KT 20SM SKC 05/M05 A3033 RMK SLP287 CYLD 091700Z 14005KT 110V200 15SM FEW260 08/M05 A3027 RMK CI1 SLP272 CYHM 091700Z VRB03KT 15SM SCT250 08/M00 A3040 RMK CI3 SLP302 CXOY 091700Z AUTO 17003KT M05/M05 RMK AO1 T10491049 CWRF 091700Z AUTO 30011KT ////SM //// OVC065 ///// A//// CWGT 091700Z AUTO 36004KT 06/04 RMK AO1 SLP154 T00640042 53005 CWHN 091700Z AUTO 20002KT 9SM OVC008 OVC066 M08/M15 A2992 RMK SLP178 CWQV 091700Z AUTO 28016KT RMK AO1 PK WND 28021/1605 CXAG 091700Z AUTO 19011KT M03/M04 RMK AO1 T10301036 CWRH 091700Z AUTO 24024G30KT ////SM FEW023 OVC031 M10/M10 A2957 CYCY 091700Z 32013KT 7SM -SN SCT070 BKN088 M19/M21 A2951 RMK AC4AC3 SLP999 CWRU 091700Z AUTO 11015KT 06/02 RMK AO1 3022 PK WND 10025/1608 SLP134 T00610018 50002 CYMX 091700Z 31009KT 250V350 25SM BKN035 BKN090 03/M05 A3029 RMK SC7AC1 AC TR SLP264 CXMM 091700Z AUTO 00003KT M05/M12 RMK AO1 SOG 12 6020 SLP136 T10501116 CYKD 091700Z 16012G17KT 15SM DRSN FEW180 SCT240 M21/M24 A2998 RMK AC1CI2 SLP153 CYZF 091700Z 08003KT 15SM R34/3500VP6000FT/U FEW080 FEW240 M25/M28 A3008 RMK AC1CI1 AC TR CI TR SLP218 CWVI 091700Z AUTO 19010KT M03/M04 RMK AO1 SOG 09 6014 SLP171 T10341039 CWQH 091700Z AUTO 28009G15KT M00/M07 RMK AO1 SOG 30 1020 SLP244 T10021069 CYSY 090000Z 35015KT 15SM IC FEW080 FEW220 M33/M36 A3016 RMK AC1CI1 AC TR LAST STFD OBS/NEXT 091400ZZ SLP232 CWVP 091700Z AUTO 33006KT M05/M06 RMK AO1 SOG 19 2010 SLP161 T10521064 CYOD 091700Z 00000KT 15SM FEW020 BKN040 M05/M13 A2996 RMK SC2SC3 SLP184 CWNP 091700Z AUTO 26002KT 02/M02 RMK AO1 2PAST HR SOG 16 0001 SLP209 P0001 T00221018 50002 CPBT 091700Z AUTO 19005KT M01/M02 RMK AO1 T10051018 CWND 091700Z AUTO 12018KT M24/M26 RMK AO1 PK WND 14023/1610 SLP108 T12401255 57017 CYQL 091735Z VRB03KT 5SM BR SCT004 BKN015 BKN270 M01/M03 A2997 RMK SF4SF2CI1 SLP189 CWGX 091700Z AUTO 29002KT M13/M19 RMK AO1 SOG 49 8007 SLP236 T11341191 CYWE 091700Z AUTO 26004KT 9SM CLR M33/M36 A2998 RMK ICG PAST HR SLP217 CYSK 091700Z 30018KT 3SM -SN OVC009 M13/M14 A3008 RMK SF8 SLP190 CWLY 091700Z AUTO 00000KT 9SM FEW001 M02/M03 A3007 RMK SLP195 CXBA 091700Z AUTO 17004KT M02/M04 RMK AO1 T10211041 CYBD 091700Z VRB02KT 15SM FEW090 FEW300 M02/M03 A3008 RMK AC2CC1 CC TR SLP188 CYXZ 091700Z 28003KT 190V310 15SM FEW080 OVC120 OVC270 07/01 A3025 RMK AC1AC7CI1 CI TR SLP261 CYFR 091700Z 13003KT 15SM SKC M20/M24 A3007 RMK SLP208 CWVT 091700Z AUTO 16007KT M08/M16 RMK AO1 SOG 50 8023 SLP193 T10771161 CXEC 091700Z AUTO 20010KT M03/M04 RMK AO1 SOG 03 7012 SLP162 T10321044 CXCS 091700Z AUTO 19004KT M03/M07 RMK AO1 T10291066 CYAW 091700Z 20011G18KT 15SM BKN040 BKN250 04/M04 A3021 RMK SC6CI1 DA-1487FT SLP232 CYZX 091700Z 20007KT 2SM -SN SCT011 OVC021 01/M02 A3018 RMK SC4SC4 SLP222 CYKP 091700Z AUTO 24004KT 210V270 9SM BKN071 06/M04 A3008 RMK SLP196 CWPO 091700Z AUTO 02013KT 04/01 RMK AO1 SOG 03 8016 SLP051 T00350010 CYRB 091700Z 03027KT 20SM DRSN FEW010 FEW180 M28/M33 A2969 RMK SC1AC1 SC TR AC TR SLP067 CZFN 091700Z 07004KT 15SM SKC M25/M28 A3015 RMK SLP226 CYUA 091700Z AUTO 17023KT ////SM NCD M11/M14 A2979 CXWM 091700Z AUTO 27004KT M02/M03 RMK AO1 T10241029 CWSG 091700Z AUTO 27009KT M03/M10 RMK AO1 SLP200 T10271095 55001 CWGY 091700Z AUTO 13004KT M03/M06 RMK AO1 SLP197 T10261055 51001 CYKF 091700Z AUTO 33004KT 310V040 9SM CLR 05/00 A3040 RMK SLP306 CWUP 091700Z AUTO 27009KT ////SM ////// M13/// A2933 CWGH 091700Z AUTO 26003KT 08/M03 RMK AO1 SLP287 T00781026 51012 CWZG 091700Z AUTO 23006KT M09/M18 RMK AO1 SOG 22 8008 SLP209 T10881180 CZFA 091700Z 33007KT 30SM FEW160 SCT220 M22/M24 A2997 RMK AC1CI2 SLP225 CWOD 091700Z AUTO 31011KT M02/M06 RMK AO1 SOG 41 1023 SLP222 T10211055 50004 CWUW 091700Z AUTO 14012KT ////SM SCT003 ///// A//// CWWU 091212Z 34018KT 15SM OVC016 M03/M05 A2996 RMK SC8 SLP147 CWRM 091700Z AUTO 12001KT M05/M06 RMK AO1 SOG 07 8006 SLP169 T10541064 CYYT 091700Z 32019KT 15SM OVC020 M03/M07 A2997 RMK SC8 SLP159 CXNM 091700Z AUTO 29006KT M02/M02 RMK AO1 SOG 210 T10201018 CWBV 091700Z AUTO 22017KT 02/M03 RMK AO1 PK WND 22019/1655 T00171028 CXHD 091700Z AUTO 19010KT M04/M04 RMK AO1 T10371042 CWBO 091700Z AUTO 27003KT M03/M05 RMK AO1 SLP193 T10331047 51006 CPRO 091700Z AUTO 27002KT M03/M04 RMK AO1 T10331036 CWIX 091600Z AUTO 28008KT M04/M06 RMK AO1 SLP219 T10371063 51021 CZVL 091751Z AUTO 20009KT 9SM OVC010 M03/M04 A2988 RMK SLP153 CWJU 091700Z AUTO 05003KT 03/03 RMK AO1 4PAST HR 3013 SLP201 P0002 T00340030 50010 CWGZ 091700Z 06010KT 15SM FEW220 M21/M31 A2972 RMK CI2 SLP071 CXEG 091700Z AUTO 20011KT M03/M05 RMK AO1 SOG 10 8012 T10331047 CXDE 091700Z AUTO 00000KT M26/M30 RMK AO1 SOG 24 1017 SLP234 T12631298 CWER 091700Z AUTO 21010KT RMK AO1 CWOE 091700Z AUTO 31018KT M03/M04 RMK AO1 SOG 05 2013 PK WND 31022/1658 SLP168 T10331038 CWXA 091700Z AUTO 23005KT M06/M17 RMK AO1 PK WND 21018/1609 SLP196 T10591167 58006 CYTE 091700Z 25010G15KT 8SM -SN DRSN OVC011 M14/M16 A2956 RMK SC8 SLP018 CXKM 091700Z AUTO 21008KT M04/M05 RMK AO1 T10421046 CYWH 091700Z 12008KT 15SM FEW012 BKN100 BKN240 08/03 A2996 RMK SC2AC4CI1 SLP146 CPFI 091700Z AUTO 34003KT M02/M03 RMK AO1 T10201032 CWDC 091700Z AUTO M15/M22 RMK AO1 SOG 75 8007 SLP210 T11531215 CYAY 091700Z AUTO 24021G26KT 9SM CLR M04/M09 A2995 RMK SLP147 CYVP 091700Z 27010G22KT 8SM -SN DRSN BKN020 M06/M11 A2989 RMK SC7 SLP126 CWDK 091700Z AUTO 16006KT M04/M04 RMK AO1 SLP186 T10361042 58004 CYXP 091700Z 25002KT 10SM -SN SCT030 OVC036 M12/M14 A2954 RMK SC3SC5 SLP007 CYER 091700Z AUTO 30009KT 9SM CLR M10/M17 A3024 RMK SLP242 CWWA 091700Z AUTO 09003KT 08/M01 RMK AO1 SLP153 T00841012 53002 CYPW 091700Z 00000KT 20SM BKN058 05/03 A2999 RMK SC7 SLP161 CWIK 091700Z AUTO 01011KT M02/M03 RMK AO1 5PAST HR 1010 SLP130 P0002 T10231033 50010 CYQU 091700Z 32008KT 3/8SM FZFG VV002 M07/M08 A2986 RMK FG8 SLP157 CYTR 091700Z 32006KT 15SM BKN230 06/M01 A3039 RMK CI6 SLP295 CYYD 091700Z 00000KT 25SM SCT013 M08/M09 A3003 RMK SF3 SLP199 CYBW 091700Z AUTO VRB02KT 9SM CLR M06/M07 A2989 RMK SLP183 CYZS 091700Z 30015KT 6SM -SN DRSN SCT035 OVC070 M22/M26 A2961 RMK SC3AC5 SLP037 CWJD 091700Z AUTO 02009G18KT M08/M12 RMK AO1 SOG 24 8007 PK WND 01018/1657 SLP192 T10761124 CYYN 091752Z AUTO 33008KT 9SM OVC004 M02/M03 A2991 RMK ICG SLP165 CXSP 091700Z AUTO 17008KT M04/M08 RMK AO1 T10381075 CYKA 091700Z VRB02KT 40SM SCT250 M00/M07 A3007 RMK CI4 SLP199 CYBK 091700Z 27012KT 15SM -SN DRSN SCT044 SCT074 M27/M32 A2981 RMK SC4AC1 AC TR SLP099 CYMM 091741Z AUTO 31006KT 2 1/2SM -SN BKN025 OVC031 M06/M10 A2987 RMK SLP143 CYKG 091700Z 26012G19KT 15SM -SN BKN040 BKN100 M14/M19 A2966 RMK SC6AC1 SLP061 CWPR 091700Z AUTO 05002KT M05/M11 RMK AO1 SOG 36 0002 SLP192 T10521114 CYFC 091748Z AUTO 24003KT 180V250 2 1/4SM -SN BKN014 BKN023 OVC039 M02/M04 A3012 RMK SLP203 CYLC 091700Z 28006KT 6SM -SN FEW026 BKN033 OVC068 M10/M14 A2965 RMK SC2SC3AS3 SLP046 CWDA 091700Z AUTO 31015G22KT 00/M07 RMK AO1 SOG 55 6009 PK WND 31023/1626 T00001072 CXCK 091700Z AUTO 00000KT M27/M30 RMK AO1 SOG 52 5000 SLP268 T12681297 CYYQ 091700Z 27013KT 15SM BKN060 M18/M23 A3014 RMK SC6 SLP211 CXDP 091700Z AUTO 18007KT M03/M03 RMK AO1 T10251029 CYZP 091700Z AUTO 29008KT 9SM OVC011 03/02 A3008 RMK SLP189 CWPK 091700Z AUTO 31006KT M03/M05 RMK AO1 SOG 66 1028 SLP263 T10301048 CZDB 091700Z AUTO 27007KT 03/M06 RMK AO1 SOG 21 8018 SLP224 T00341060 CWSF 091700Z AUTO 32006KT M02/M06 RMK AO1 SOG 40 8003 SLP196 T10231064 CYWJ 091710Z 00000KT 30SM IC FEW005 M26/M28 A3010 RMK ST1 ST TR SLP229 CWBS 091700Z AUTO 22005KT 01/M04 RMK AO1 T00121035 CWNH 091700Z AUTO 23004KT M03/M05 RMK AO1 SOG 48 1017 SLP215 T10261053 50002 CYQG 091700Z AUTO 13007KT 110V170 9SM CLR 11/03 A3040 RMK SLP297 CZBF 091700Z AUTO 05005KT 9SM CLR M02/M09 A3011 RMK SLP201 CWHQ 091400Z AUTO 26004KT M05/M08 RMK AO1 T10491075 CWIP 090600Z AUTO 34002KT M08/M10 RMK AO1 T10821097 CYDF 091700Z 28009G17KT 250V310 15SM SCT039 01/M08 A3006 RMK SC3 SLP182 CYFT 091700Z 23011KT 15SM FEW025 BKN240 M05/M17 A2984 RMK CF1CI6 CF TR SLP113 CWNL 091700Z AUTO 19003KT 03/01 RMK AO1 SLP294 T00340006 50001 CYCB 091718Z 36013G19KT 1 1/2SM BLSN FEW004 SCT009 SCT090 BKN230 M27/M31 A2983 RMK BLSN1CF1SC1AC1CI1 VIS VRB 1 - 2 SLP108 CYRT 091700Z 28014KT 15SM SCT270 M27/M32 A2985 RMK CI4 SLP114 CYQZ 091700Z AUTO 17005KT 9SM CLR M03/M06 A2998 RMK SLP185 CWSR 091700Z AUTO 12003KT M07/M15 RMK AO1 SOG 09 8009 SLP191 T10741147 CWAF 091700Z AUTO 22006KT M02/M05 RMK AO1 T10201050 CYTQ 091700Z 26014KT 10SM -SN DRSN FEW020 BKN033 BKN075 M09/M11 A2988 RMK SC1SC4AC2 SLP123 CYDA 091700Z 09002KT 20SM FEW090 SCT140 BKN210 M27/M30 A3014 RMK AC1AC3CI3 SLP252 CYFO 091700Z VRB02KT 15SM BKN250 M10/M18 A3012 RMK CS6 SLP226 CYGQ 091700Z 17006KT 15SM OVC065 06/M05 A3013 RMK SC8 SLP222 CYQI 091700Z 19008KT 9SM BKN024 OVC036 03/01 A3017 RMK SC7SC1 SLP221 CAHR 091700Z AUTO 20007KT 01/M06 RMK AO1 SOG 35 8012 SLP212 T00061063 CWKD 071900Z AUTO 33008KT M10/M16 RMK AO1 SLP226 T10981155 51009 CWEZ 091700Z AUTO 09015KT 07/01 RMK AO1 PK WND 09018/1652 SLP146 T00740009 53005 CXSE 091700Z AUTO 29010KT M34/M38 RMK AO1 SOG 49 8003 SLP137 T13441380 CTCK 091700Z AUTO 26004KT 04/M04 RMK AO1 SOG 44 1019 SLP276 T00381036 CZMJ 091700Z AUTO 35011KT M03/M04 RMK AO1 2PAST HR SOG 08 0004 PK WND 35017/1618 SLP164 P0001 T10301036 50020 CYZY 091700Z AUTO 00000KT 9SM CLR M09/M10 A2992 RMK SLP177 CXZC 091700Z AUTO 20004KT 06/M00 RMK AO1 SOG 48 6011 SLP219 T00621003 CWZW 091600Z AUTO 00000KT M27/M30 RMK AO1 SOG 80 8006 SLP277 T12691299 50002 CYYZ 091700Z 32005KT 290V350 15SM BKN250 09/M02 A3040 RMK CS6 SLP301 CZFM 091700Z 15007KT 35SM FEW180 M24/M27 A3001 RMK AC1 AC TR SLP170 CWOB 091700Z AUTO VRB03KT ////SM OVC035 M11/M12 A2947 CYIN 091700Z AUTO 00000KT 9SM CLR M06/M11 A2990 RMK SLP171 CWMQ 091700Z AUTO 29007KT M02/M04 RMK AO1 SLP187 T10191040 51008 CYQV 091737Z AUTO 02016G24KT 2SM -SN OVC021 M06/M07 A2990 RMK VIS VRB 1 3/4-2 1/2 SLP160 CYRQ 091700Z AUTO 21008KT 9SM BKN031 OVC055 M01/M05 A3025 RMK SLP249 CYVM 091700Z 05005KT 4SM -SN OVC038 M15/M17 A2948 RMK SC8 VIS HIER S-SW SLP984 CBBC 091700Z AUTO /////KT 9SM CLR 00/M00 A2999 RMK ICG WND MISG SLP160 CXPC 091700Z AUTO 06/M03 RMK AO1 SOG 36 0006 SLP290 T00561027 CYSN 091700Z 36004KT 230V020 15SM FEW030 BKN250 08/00 A3041 RMK SC1CI5 SC TR SLP302 CYYB 091700Z 20008KT 30SM FEW025 FEW280 03/M02 A3033 RMK CF1CI1 CF TR SLP288 CWLE 091700Z AUTO 03010KT M04/M06 RMK AO1 SLP179 T10401060 50002 CYPQ 091700Z AUTO 32004KT 280V360 9SM CLR 05/M02 A3038 RMK SLP299 CWHL 091700Z AUTO 08002KT 04/M00 RMK AO1 SLP174 T00391001 53007 CWWL 091700Z AUTO 02008KT 05/02 RMK AO1 SLP170 T00510020 CWGD 091700Z AUTO 10003KT 05/M01 RMK AO1 SOG 01 0001 SLP310 T00541011 CWVD 091700Z AUTO 31015KT ////SM SCT025 SCT040 M12/M15 A2927 CYKO 091717Z 25011G17KT 1SM -SHSN BLSN OVC024 M14/M17 A2980 RMK BLSN3SC5 VIS VRB 1/2-11/2 CVCTV CLD EMBD SLP097 CWSP 091700Z AUTO 09007KT 07/02 RMK AO1 SLP137 T00720018 53003 CYQR 091741Z 03014KT 1 1/4SM -SHSN FEW005 OVC025 M03/M04 A2988 RMK SC2SC6 CVCTV CLD EMBD SLP148 CWBU 091700Z AUTO 04007KT M08/M14 RMK AO1 SOG 18 6007 SLP204 T10791135 CYXT 091700Z 01009G16KT 20SM SKC M02/M05 A3006 RMK SLP193 CWDJ 091700Z AUTO 02014KT M03/M05 RMK AO1 7PAST HR 1011 PK WND 02020/1605 SLP149 P0003 T10281046 50024 CXMY 091700Z AUTO 05/M06 RMK AO1 T00491061 CZUM 091700Z AUTO 31004KT 300V010 9SM CLR M05/M14 A2989 RMK SLP167 CPEH 091700Z AUTO 17003KT M03/M03 RMK AO1 T10251031 CXBK 091700Z AUTO 03012KT M02/M03 RMK AO1 3PAST HR 1012 PK WND 02017/1642 SLP132 P0005 T10241030 50025 CPSV 091700Z AUTO 29006KT M03/M03 RMK AO1 T10261032 CYRJ 091700Z 32009G16KT 25SM SCT017 OVC048 M02/M06 A3019 RMK SC4SC4 SLP237 CYBN 091700Z AUTO 02006KT 290V040 9SM FEW096 06/M03 A3040 RMK SLP302 CYHD 091700Z AUTO 13012KT 9SM FEW100 06/M01 A2980 RMK SLP111 CXBO 091700Z AUTO 23011KT M02/M06 RMK AO1 T10201061 CYIO 091700Z 17005KT 25SM FEW065 BKN250 M19/M21 A2946 RMK SC1CI6 SLP985 CZPS 091700Z AUTO 22005KT M03/M04 RMK AO1 T10341035 50004 CWCI 091700Z AUTO 13013KT 03/01 RMK AO1 SLP250 T00290007 58010 CYOW 091700Z 29010G15KT 15SM SCT036 04/M03 A3033 RMK SC4 SLP278 CPXL 091700Z AUTO 28003KT M03/M04 RMK AO1 T10311037 CWBA 091700Z AUTO 35003KT 07/M06 RMK AO1 SOG 43 T00671055 CYLT 091700Z 06007KT 3SM -SN OVC030 M32/M35 A3010 RMK SC8 VIS VRB 2 1/4-4 SLP200 CYCG 091700Z 17003KT 120V190 15SM FEW110 BKN200 M01/M05 A3010 RMK AC1CI5 SLP213 CWHO 091700Z AUTO M05/M11 RMK AO1 SLP109 T10501114 58012 CXAK 091700Z AUTO 20008KT M04/M04 RMK AO1 T10441044 CWDQ 091700Z AUTO 31008KT M01/M05 RMK AO1 SOG 33 3023 SLP246 T10131053 CYZR 091700Z AUTO 03008KT 9SM CLR 08/02 A3040 RMK SLP302 CYXN 091700Z 27019KT 15SM FEW010 SCT090 M27/M31 A2991 RMK SC1AS3 SLP133 CWYJ 091700Z AUTO 13001KT 07/03 RMK AO1 SLP146 T00660028 53010 CYGL 091700Z 21010G19KT 15SM FEW009 SCT110 M02/M05 A3007 RMK CF1AC3 CF TR SLP201 CYBL 091700Z 31003KT 20SM -RA FEW010 BKN035 BKN057 02/02 A3000 RMK SF2SC4SC1 SLP163 CWQK 091700Z AUTO 08014KT 07/ RMK AO1 SLP135 T0066 53002 CYXR 091700Z AUTO 15005KT 9SM CLR 02/M02 A3032 RMK SLP282 CWEF 091700Z AUTO M03/ RMK AO1 SLP212 T1026 58004 CWWS 091700Z AUTO 03017KT M04/M08 RMK AO1 SOG 64 6017 PK WND 03021/1631 SLP162 T10441083 CYVL 091721Z AUTO 10004KT 340V110 7SM CLR M35/M39 A3007 RMK SLP238 CYGE 091700Z 15005KT 20SM FEW220 M05/M10 A3006 RMK CI1 SLP222 CWFD 091700Z AUTO 02005KT ////SM FEW042 SCT060 M12/M13 A2922 CYDB 091700Z AUTO VRB02KT 9SM CLR M24/M27 A3001 RMK TS/LTNG TEMPO UNAVBL SLP256 CXCA 091700Z AUTO 18006KT 03/M02 RMK AO1 SOG 13 8018 SLP204 T00341017 CTNK 091700Z AUTO 35003KT 07/M06 RMK AO1 SOG 63 1009 SLP282 T00661062 CWRK 091700Z AUTO 33005KT 05/M06 RMK AO1 SOG 49 1006 SLP286 T00541057 CYZG 091722Z 22029KT 3/4SM -SN BLSN OVC023 M17/M20 A2962 RMK BLSN5SC3 SLP061 CYCD 091700Z VRB03KT 15SM SCT026 BKN035 06/02 A2998 RMK SC4SC3 SLP154 CYOO 091700Z AUTO 31009KT 9SM CLR 07/M03 A3040 RMK SLP301 CYXU 091700Z 04004KT 020V100 15SM SCT220 06/M00 A3041 RMK CI3 SLP308 CWFF 091700Z AUTO 06006KT M08/M13 RMK AO1 SOG 22 5003 SLP199 T10831129 CZSP 091700Z AUTO 22008KT 03/M09 RMK AO1 SOG 23 8013 SLP221 T00261092 CYYW 091722Z AUTO 11006KT 9SM -RA BKN048 BKN055 OVC069 01/01 A3005 RMK PRESFR SLP194 CWDZ 091700Z AUTO 25004KT M02/M03 RMK AO1 SLP187 T10211034 56003 CWTG 091700Z AUTO 24012KT M02/M06 RMK AO1 SLP198 T10211063 51002 CWNE 091700Z AUTO 08003KT M01/M06 RMK AO1 SLP199 T10081060 58010 CYCK 091700Z AUTO 12008KT 9SM CLR 09/03 A3040 RMK SLP301 CZEL 091700Z AUTO 30001KT 03/M02 RMK AO1 SOG 17 1010 SLP306 T00251022 CYDN 091745Z AUTO 36012KT 3/8SM SN VV010 M05/M05 A2989 RMK SLP144 CWMJ 091700Z AUTO 33007KT 04/M04 RMK AO1 SOG 36 1021 SLP273 T00381041 CYRL 091735Z 07005KT 040V100 2SM -SHSN OVC007 01/01 A2981 RMK SN2ST6 CVCTV CLD EMBD SLP114 CWXI 091700Z AUTO M04/M09 RMK AO1 SLP149 T10361091 58003 CXYH 091700Z AUTO 35004KT M19/M21 RMK AO1 SLP163 T11891213 51001 CYOY 091700Z 23010KT 190V250 15SM OVC030 M03/M08 A3018 RMK SC8 DA-1810FT FST STFD OBS SLP232 CYTL 091700Z AUTO 07007KT 040V110 9SM FEW035 OVC055 M08/M14 A3016 RMK SLP232 CWNC 091700Z AUTO 32005KT 07/M02 RMK AO1 SOG 02 1015 SLP294 T00651018 CXWB 091700Z AUTO 32010KT M26/M31 RMK AO1 SLP040 T12631307 57004 CZMD 091700Z AUTO 05014KT 9SM -SN OVC011 M07/M10 A3008 RMK SLP210 CYMO 091700Z AUTO 21012KT 9SM CLR 05/00 A3017 RMK SLP218 CXIB 091700Z AUTO 07004KT 02/M04 RMK AO1 SOG 44 8011 SLP212 T00241035 CYYJ 091700Z 09007KT 20SM FEW030 FEW050 BKN130 BKN220 07/01 A2996 RMK SC1SC1AC6CI1 SC TR CI TR SLP148 CXSH 091700Z AUTO 31005KT 01/M04 RMK AO1 SLP242 T00111035 52023 CWKG 091700Z AUTO 20004KT M00/M01 RMK AO1 2PAST HR SOG 02 8007 SLP224 P0001 T10011012 50002 CMFM 091700Z AUTO 30007KT M05/M09 RMK AO1 SOG 61 3023 SLP207 T10511089 50003 CYAS 091400Z 27017G23KT 15SM -SN BKN014 BKN018 M10/M12 A2972 RMK ST5SC2 LAST STFD OBS/NEXT 101300UTC SLP079 CWSW 091700Z 02003KT 330V040 20SM BKN160 M06/M12 A3008 RMK AS7 SLP240 CYPY 091746Z AUTO 10005KT 050V120 9SM SCT045 BKN060 BKN079 M13/M17 A3002 RMK TS/LTNG TEMPO UNAVBL SLP190 CXAT 091700Z AUTO 13002KT M20/M23 RMK AO1 SLP995 T11951227 54000 CYXL 091700Z 11006KT 070V160 15SM SCT040 OVC060 03/02 A2985 RMK SC4SC4 PRESFR SLP128 CYKL 091732Z AUTO 29012KT 9SM FEW025 BKN066 BKN086 M07/M11 A2986 RMK SLP153 CYLH 091752Z AUTO 06006KT 2 1/2SM -SN BKN022 OVC030 M04/M05 A3007 RMK SLP204 CYDP 091700Z 28019G25KT 15SM FEW120 FEW210 BKN240 M06/M13 A2981 RMK AC1CI2CS4 AC TR SLP097 CWBK 091700Z AUTO 08008KT 01/M03 RMK AO1 SOG 16 8015 SLP217 T00071033 CYCO 091700Z 26014KT 8SM IC DRSN FEW016 FEW090 SCT130 M29/M32 A3015 RMK SC1AC1AC1 SLP216 CYQW 091700Z AUTO 13006KT 9SM FEW042 OVC060 M07/M10 A3003 RMK SLP206 CWWB 091700Z AUTO 11006KT 06/M01 RMK AO1 SLP301 T00611006 50006 CXAJ 091700Z AUTO 20008KT M04/M04 RMK AO1 SOG 43 T10361035 CXMI 091700Z AUTO 23016KT 03/M03 RMK AO1 PK WND 24022/1632 SLP225 T00301029 58012 CYOC 091700Z 26003KT 35SM FEW030 FEW110 SCT220 M27/M31 A2993 RMK SC1AC1CI2 SC TR SLP172 CYQX 091700Z 30010G17KT 270V330 20SM BKN022 M03/M07 A2997 RMK SC6 SLP161 CYLU 091700Z 25010G17KT 6SM -SN SCT012 OVC038 M08/M11 A2985 RMK SN1ST2SC5 VIS S 12 SLP117 CXBW 091700Z AUTO 23003KT M01/M03 RMK AO1 T10121030 CYGK 091700Z 19006KT 15SM SCT250 05/M01 A3037 RMK CI3 SLP290 CWAJ 091700Z AUTO 08008KT 05/01 RMK AO1 SLP301 T00510014 50005 CWZQ 091700Z AUTO 24009KT M00/M05 RMK AO1 PK WND 13037/1609 SLP227 T10011048 58004 CYSC 091700Z AUTO 31011G16KT 9SM FEW030 OVC037 M00/M06 A3020 RMK SLP243 CYLK 091700Z 00000KT 25SM FEW100 M26/M29 A3008 RMK AC1 AC TR SLP217 CYTH 091700Z VRB02KT 15SM SCT170 BKN210 M11/M17 A3015 RMK AS4CI3 SLP235 CYDL 091700Z AUTO 07007KT 9SM CLR M21/M23 A3006 RMK SLP237 CYQB 091700Z 23012KT 30SM FEW011 OVC038 M02/M06 A3021 RMK CF1SC8 CF TR SLP236 CWLM 091700Z AUTO 12007G15KT 07/04 RMK AO1 PK WND 11018/1632 SLP143 T00690036 53009 CWKK 091700Z AUTO 19004KT 05/M02 RMK AO1 SOG 40 8012 SLP185 T00461019 CYVQ 091700Z 11003KT 30SM SKC M26/M29 A3016 RMK SLP225 CXTH 091700Z AUTO 20013KT M05/M05 RMK AO1 T10501050 CYJF 091700Z VRB02KT 15SM SKC M20/M23 A2997 RMK SLP175 CYHK 091749Z AUTO 35011KT 9SM FEW076 BKN110 M21/M23 A2955 RMK SLP015 CYMA 091700Z 00000KT 20SM FEW008 FEW150 SCT220 M28/M32 A3007 RMK ST1AC1CI2 ST TR SLP252 CWHI 091700Z AUTO 19007KT M03/M03 RMK AO1 T10271033 CYMH 091700Z AUTO VRB03KT 9SM CLR 01/M11 A2987 RMK SLP117 CWVQ 091700Z AUTO 30008KT 03/M04 RMK AO1 SOG 43 1026 SLP267 T00271041 CPST 091700Z AUTO 22006KT M03/M03 RMK AO1 T10271027 CYLJ 091700Z VRB02KT 15SM BKN079 M11/M16 A3000 RMK AC7 SLP198 CYED 091700Z 19010KT 5SM BR OVC005 M03/M04 A2990 RMK ST8 DA487FT FST STFD OBS SLP162 CWSL 091700Z AUTO 30001KT M02/M04 RMK AO1 SLP202 T10181035 50003 CWVU 091700Z AUTO 16010G15KT 03/01 RMK AO1 SLP212 T00270009 58015 CYSP 091700Z 19009G15KT 160V230 15SM OVC100 05/M02 A3021 RMK AC8 SLP248 CYBV 091700Z 06012G18KT 2SM -SN BKN010 OVC030 M02/M05 A2990 RMK SN4SC3SC1 SLP139 CWEU 091700Z 33014G21KT 15SM FEW035 FEW240 M24/M29 A2990 RMK CF1CI1 SLP141 CWJR 091700Z AUTO 07002KT 01/M07 RMK AO1 SLP216 T00131067 51008 CWWK 091700Z AUTO 04004KT 08/M00 RMK AO1 SLP159 T00811003 56003 CYXS 091700Z AUTO 17005KT 9SM CLR M03/M06 A2993 RMK SLP174 CYQD 091700Z AUTO 02006KT 340V090 9SM FEW120 M09/M15 A3011 RMK SLP217 CWAE 091700Z 32002KT 15SM OVC052 M01/M03 A2999 RMK SC1 WND ESTD SLP179 CXAF 091700Z AUTO 21011KT M04/M04 RMK AO1 T10361036 CWEB 091700Z AUTO 04005KT 05/05 RMK AO1 SLP136 T00500048 55000 CXKT 091700Z AUTO 22009KT 02/M03 RMK AO1 SOG 18 6008 PK WND 20017/1628 SLP220 T00181033 CWIJ 091700Z AUTO 30014KT M29/M32 RMK AO1 SOG 38 3008 SLP169 T12881320 CWJH 091700Z AUTO 20004KT M09/M20 RMK AO1 SOG 73 8015 SLP225 T10901200 CYNM 091700Z AUTO 22006KT 140V250 9SM CLR 01/M05 A3024 RMK SLP260 CYBG 091700Z 29011KT 15SM BKN016 OVC040 M03/M07 A3017 RMK SC6SC2 SLP230 CXBR 091700Z AUTO 00000KT M02/M06 RMK AO1 T10151055 CYKQ 071400Z 26007KT 15SM BKN014 M21/M24 A3044 RMK SF5 LAST STFD OBS/NEXT 141400UTC SLP313 CYAH 091741Z AUTO 26012KT 9SM SCT016 BKN066 OVC082 M05/M08 A3007 RMK SLP209 CYSF 091700Z AUTO VRB02KT 9SM SCT086 M15/M21 A3006 RMK SLP210 CWJI 091700Z AUTO 35012KT M02/M04 RMK AO1 SOG 03 8002 SLP148 T10201036 50010 CWXC 091700Z AUTO 36005KT M04/M07 RMK AO1 T10431070 CWRZ 091700Z AUTO 08008KT M02/M05 RMK AO1 SLP193 T10231052 58009 CYCS 091729Z 29014KT 2SM BLSN OVC150 M26/M31 A2981 RMK BLSN1AS7 SLP098 CWTN 091700Z AUTO 24005KT M02/M07 RMK AO1 SLP227 T10211067 53020 CYBU 091700Z AUTO 01007KT 9SM CLR M08/M13 A3007 RMK SLP210 CXMG 091700Z AUTO 01003KT M08/M09 RMK AO1 T10801087 CXTO 091700Z AUTO 09/M03 RMK AO1 SLP301 T00881031 51012 CYHZ 091700Z 24011G16KT 15SM BKN038 BKN120 BKN260 03/M05 A3017 RMK CU5AC1CI1 SLP226 CWOY 091700Z AUTO 05007KT M06/M08 RMK AO1 7PAST HR SOG 06 0005 SLP182 P0003 T10631077 50023 CYET 091700Z AUTO 23004KT 200V280 9SM CLR M02/M06 A2986 RMK SLP155 CWQR 091700Z AUTO 24008KT M03/ RMK AO1 T1030 CYAM 091700Z 09006KT 15SM FEW020 FEW180 SCT220 BKN280 05/M00 A3032 RMK SC1AC2CI1CI3 SC TR SLP279 CXDW 091700Z AUTO 34010KT 04/02 RMK AO1 SLP052 T00370022 56025 CYIK 091700Z 20017KT 3SM -SN BR DRSN SCT013 BKN018 OVC020 M15/M17 A2969 RMK ST4SC2SC2 SLP060 CWCF 091700Z AUTO 05010G15KT M02/M05 RMK AO1 SOG 27 8022 PK WND 06019/1600 SLP137 T10181048 CXVM 091700Z AUTO 19005KT M03/M07 RMK AO1 T10311066 CXEA 091700Z AUTO 08008KT 02/01 RMK AO1 4PAST HR SOG 18 8045 SLP105 P0002 T00220012 50033 CWKP 091700Z AUTO VRB03KT ////SM NCD M22/M25 A3000 CYYH 091700Z 01005KT 15SM FEW032 FEW090 BKN220 M23/M25 A2952 RMK SC1AC1CI5 SLP004 CYRV 091700Z AUTO 00000KT 9SM CLR M02/M05 A3010 RMK SLP218 CYHU 091700Z AUTO 23011KT 9SM BKN037 02/M04 A3029 RMK SLP261 CYWA 091700Z AUTO 30009KT 280V360 9SM CLR 06/M04 A3034 RMK SLP282 CXHF 091700Z AUTO 04/M02 RMK AO1 T00401021 CXOX 091700Z AUTO 16006KT M10/M18 RMK AO1 SOG 40 8016 SLP214 T11001183 CWWE 091700Z AUTO 20011KT 01/01 RMK AO1 PK WND 20020/1626 SLP232 T00110009 58008 CXLB 091700Z AUTO 22014KT 03/M04 RMK AO1 PK WND 20019/1647 SLP220 T00271035 58008 CYGH 091700Z 09003KT 25SM SKC M28/M31 A3012 RMK SLP214 CWSS 091700Z AUTO 07002KT M00/M04 RMK AO1 SOG 14 8013 SLP206 T10031043 CYPO 091700Z AUTO 01009KT 320V030 9SM OVC071 M10/M19 A3021 RMK SLP236 CYVV 091700Z 19003KT 15SM FEW016 BKN250 06/M02 A3039 RMK SC1CI5 SC TR SLP301 CWZL 091700Z AUTO 31008KT 04/ RMK AO1 SLP191 T0038 53014 CWNK 091700Z AUTO 36008KT 05/02 RMK AO1 T00490015 50003 CYYF 091700Z 00000KT 15SM SCT110 BKN230 02/M04 A3006 RMK AC3CI4 SLP195 CXDI 091700Z AUTO 34004KT 07/M01 RMK AO1 SLP306 T00671006 50005 CWEK 091700Z AUTO 01009KT 03/M00 RMK AO1 3008 SLP184 T00341003 50002 CWWX 091700Z AUTO 28002KT 03/01 RMK AO1 SLP294 T00250007 51005 CTRA 091700Z AUTO 15007KT 08/M02 RMK AO1 SOG 15 8038 SLP082 T00791023 50010 CWKX 091700Z AUTO 06006KT M21/M24 RMK AO1 SOG 67 8002 SLP255 T12091238 CYHI 091700Z 34008KT 15SM SKC M26/M31 A3013 RMK SLP211 CXSL 091700Z AUTO 22007KT M05/M05 RMK AO1 T10451050 CWIZ 091700Z AUTO 28007KT 02/M04 RMK AO1 SOG 32 T00191039 CYCP 091700Z 00000KT 15SM FEW160 SCT230 M06/M08 A3004 RMK AC1CI3 AC TR FROIN SLP214 CYQT 091700Z 08012KT 20SM SCT110 OVC250 03/M01 A3006 RMK AC3CS5 PRESFR SLP190 CWJO 091700Z AUTO 26009KT M03/M05 RMK AO1 2018 SLP235 T10281051 50011 CWKH 091700Z AUTO 04/ RMK AO1 SLP135 T0038 53008 CYZE 091700Z AUTO VRB02KT 9SM CLR 06/M00 A3036 RMK SLP291 CYCA 091700Z AUTO 21008KT 9SM CLR M04/M14 A2986 RMK SLP115 CXMD 091700Z AUTO 09003KT 07/M00 RMK AO1 SLP044 T00701001 56026 CYQM 091734Z 25011KT 8SM -SN BKN042 BKN110 00/M02 A3011 RMK SC6AC1 SLP202 CWGW 091700Z AUTO 01003KT M06/M13 RMK AO1 SOG 04 8002 SLP215 T10601126 CYCX 091723Z 22007KT 8SM -SN BKN010 OVC050 M02/M06 A3013 RMK ST6SC2 DA-2104FT PCPN VRY LGT CIG VRB 7-13 SLP206 CXKE 091700Z AUTO 34006KT 06/M04 RMK AO1 SOG 28 1017 SLP277 T00551041 CYPC 091700Z 14002KT 15SM SKC M29/M33 A3019 RMK SLP227 CXKI 091700Z AUTO 06/M05 RMK AO1 SOG 37 1006 SLP276 T00641054 CYPL 091751Z AUTO 11008G15KT 4SM RA BR FEW007 SCT018 OVC023 02/01 A2996 RMK SLP166 CYMJ 091700Z CCB 36011KT 1SM -SN OVC006 M03/M04 A2991 RMK SF8 /S05/ SLP155 CWPE 091700Z AUTO 31003KT 01/M00 RMK AO1 SOG 01 8011 SLP209 T00061003 CWWZ 091700Z AUTO 24002KT 06/02 RMK AO1 SLP308 T00620022 51011 CXDB 091700Z AUTO 25002KT M01/M02 RMK AO1 T10141019 CWBE 091700Z AUTO 22010KT 02/M01 RMK AO1 SLP293 T00151011 50004 CZFS 091700Z AUTO 13001KT M19/M22 RMK AO1 SOG 36 3003 SLP183 T11901215 CYWY 091700Z 33003KT 280V010 15SM FEW050 FEW066 BKN070 M25/M28 A3007 RMK SC1AC1AC5 SC TR SLP207 CYYR 091700Z 22016KT 15SM FEW160 BKN230 M03/M10 A2994 RMK AC1CS5 HALO SLP142 CWHV 091700Z AUTO 29006KT M02/M07 RMK AO1 3017 SLP222 T10191070 50002 CWRO 091700Z AUTO 01013KT 05/04 RMK AO1 SLP187 T00470043 53011 CWRJ 091700Z AUTO 05011KT M06/M08 RMK AO1 SOG 08 8002 SLP184 T10591078 CYZH 091735Z AUTO VRB02KT 6SM -SN SCT025 BKN039 BKN050 OVC066 M03/M06 A2985 RMK SLP142 CYGW 091700Z AUTO 23009KT 9SM OVC013 M04/M06 A3006 RMK SLP180 CYLL 091700Z 17010KT 15SM FEW040 FEW250 M05/M08 A2995 RMK SC1CI1 SLP186 CYBB 091700Z 25008KT 6SM -SN OVC015 M20/M23 A2950 RMK SC8 SLP993 CWQP 091700Z AUTO 26006KT 04/M00 RMK AO1 SLP296 T00371002 51015 CWZO 091700Z AUTO 09013G19KT RMK AO1 PK WND 14021/1600 CXVW 091700Z AUTO 21005KT M04/M05 RMK AO1 T10381046 CYEK 091700Z 28016G21KT 15SM IC SKC M22/M27 A3002 RMK SLP168 CZHY 091700Z AUTO 15001KT M17/M20 RMK AO1 SOG 23 6013 SLP191 T11741198 CYXQ 091700Z VRB02KT 30SM SCT140 OVC250 M25/M28 A3001 RMK AC3CI5 SLP237 CXTP 091700Z AUTO 31005KT M01/M08 RMK AO1 SOG 51 0005 SLP154 T10141079 CYMU 091737Z 23011KT 3SM -FZDZ -SN OVC006 M09/M10 A3004 RMK ST8 CIG VRB 4-8 SLP180 CWID 091700Z AUTO 10002KT M17/M19 RMK AO1 SLP189 T11681191 56010 CWYL 091700Z AUTO 00000KT M10/M16 RMK AO1 8PAST HR SOG 113 8005 SLP209 P0003 T11001158 50008 CWFQ 091700Z AUTO 33005KT M00/M05 RMK AO1 SOG 38 3025 SLP256 T10031051 CWSA 091700Z AUTO 27012G17KT 9SM FEW022 01/M06 A3028 RMK SLP254 CWVH 091700Z AUTO 16030KT ////SM NCD M20/M22 A2831 CYGX 091700Z VRB02KT 15SM BKN210 M13/M17 A3018 RMK CI7 SLP237 CYYY 091700Z VRB02KT 15SM FEW030 SCT065 OVC200 M04/M10 A3014 RMK SC1SC4CI4 SC TR SLP211 CYPE 091700Z 33005KT 15SM OVC012 M07/M10 A2988 RMK SC8 SLP155 CXDK 091700Z AUTO 02001KT M23/M26 RMK AO1 SOG 47 3008 SLP187 T12261261 CWLP 091700Z AUTO 12006KT 07/ RMK AO1 SLP148 T0072 53012 CWII 091700Z AUTO 07012KT 05/M00 RMK AO1 PK WND 07020/1609 SLP080 T00491004 56039 CWIL 091700Z AUTO 32020KT ////SM ////// M22/M24 A2964 CYGR 091700Z 20013G18KT 20SM FEW020 M01/M06 A3016 RMK SC1 SC TR SLP214 CZPC 091700Z AUTO 24007KT 220V290 9SM BKN180 M00/M08 A2993 RMK SLP181 CXOL 091700Z AUTO 21008KT M03/M08 RMK AO1 T10301077 CWVF 091700Z AUTO 08014KT 07/01 RMK AO1 T00670010 CWVN 091700Z AUTO 32009KT M00/M02 RMK AO1 6PAST HR 1006 SLP158 P0002 T10011015 50006 CWMT 091700Z AUTO 07001KT M25/M28 RMK AO1 SOG 36 3002 SLP206 T12501282 CYUL 091700Z 27011KT 240V300 30SM FEW025 BKN038 03/M04 A3030 RMK CF1SC7 CF TR SLP264 CXGH 091700Z AUTO 05013KT 02/M00 RMK AO1 PK WND 05019/1632 SLP067 T00201003 56034 CWZA 091700Z AUTO 36006KT 05/M02 RMK AO1 SLP162 T00541024 56001 CYXY 091700Z 16003KT 40SM BKN240 M23/M25 A3007 RMK CI7 SLP257 CWST 091700Z AUTO 24012KT M03/M06 RMK AO1 SOG 14 2018 PK WND 22017/1600 SLP215 T10301060 50002 CZCP 091700Z AUTO 24007KT ////SM //// NCD M29/M31 A3016
[19:05] View Mode: Virtual Cockpit
[19:06] Flaps: Position 0
[19:06] NOTE: Taxi started
[19:08] NOTE: Arrived
[19:08] Parking Brake: Engaged
[19:08] Engine 1: Stopped
[19:08] Engine 2: Stopped
[19:08] Light Data: Landing lights OFF
[19:08] Light Data: Navigation OFF
[19:08] Light Data: Beacon OFF
[19:08] Light Data: Strobe lights OFF
[19:08] Light Data: Instrument lights OFF
[19:08] Gate: 1 - CAF2
[19:08] NOTE: Flight Completed
[19:08] FS Aircraft: RealAir Beech Duke V2 N1873K Winglets Ventral
[19:08] FS Model: Duke
[19:08] FS Type: Beech
[19:08] FOB: 309 lbs
[19:08] Fuel Used: 178 lbs
[19:08] Flight Time: 00:43:47
[19:08] Flight Time (Dawn): 00:00:00
[19:08] Flight Time (Day): 00:43:47
[19:08] Flight Time (Dusk): 00:00:00
[19:08] Flight Time (Night): 00:00:00
[19:08] Total Landings: 1
[19:08] MaxSim Rate: 1x
[19:08] Cigar Box - 1.1.4.0
[19:08] ----- Flight Closed -----

Route Map